Time;durP1;ratioP1;P1;durP2;ratioP2;P2;SDS_P1;SDS_P2;PMS_P1;PMS_P2;Temp;Humidity;BMP_temperature;BMP_pressure;BME280_temperature;BME280_humidity;BME280_pressure;Samples;Min_cycle;Max_cycle;Signal;HPM_P1;HPM_P2
2021/07/19 00:00:37;;;;;;;9.20;8.27;;;;;;;;;;2064431;28;20196;-54
2021/07/19 00:01:37;;;;;;;11.07;8.43;;;;;;;;;;2058477;28;20170;-52
2021/07/19 00:02:38;;;;;;;9.98;8.40;;;;;;;;;;2063840;28;20193;-54
2021/07/19 00:03:38;;;;;;;9.82;8.82;;;;;;;;;;2065923;28;20197;-52
2021/07/19 00:04:40;;;;;;;10.13;8.63;;;;;;;;;;2060073;28;20202;-52
2021/07/19 00:05:41;;;;;;;10.10;7.68;;;;;;;;;;2066796;28;20682;-50
2021/07/19 00:06:41;;;;;;;9.77;8.10;;;;;;;;;;2065919;28;20182;-50
2021/07/19 00:07:42;;;;;;;9.07;8.07;;;;;;;;;;2066192;28;20232;-53
2021/07/19 00:08:42;;;;;;;10.85;9.13;;;;;;;;;;2065395;28;20634;-50
2021/07/19 00:09:45;;;;;;;10.57;8.57;;;;;;;;;;2058193;28;20304;-52
2021/07/19 00:10:46;;;;;;;11.07;8.93;;;;;;;;;;2065333;28;20654;-55
2021/07/19 00:11:46;;;;;;;11.82;8.60;;;;;;;;;;2065060;28;20180;-53
2021/07/19 00:12:47;;;;;;;9.23;8.27;;;;;;;;;;2061559;28;20647;-55
2021/07/19 00:13:48;;;;;;;10.00;8.35;;;;;;;;;;2065014;28;20729;-53
2021/07/19 00:14:48;;;;;;;9.77;8.88;;;;;;;;;;2058104;28;20192;-53
2021/07/19 00:15:49;;;;;;;10.77;8.75;;;;;;;;;;2060804;28;20181;-50
2021/07/19 00:16:49;;;;;;;11.18;8.50;;;;;;;;;;2065662;28;20214;-55
2021/07/19 00:17:50;;;;;;;10.05;8.40;;;;;;;;;;2058587;28;20225;-55
2021/07/19 00:18:50;;;;;;;9.43;8.52;;;;;;;;;;2064707;28;20698;-52
2021/07/19 00:19:51;;;;;;;9.98;8.57;;;;;;;;;;2063682;28;20173;-52
2021/07/19 00:20:52;;;;;;;9.48;8.15;;;;;;;;;;2064346;28;20166;-52
2021/07/19 00:21:53;;;;;;;9.80;8.80;;;;;;;;;;2063709;28;20173;-54
2021/07/19 00:22:53;;;;;;;12.73;8.98;;;;;;;;;;2065128;28;20196;-51
2021/07/19 00:23:54;;;;;;;9.73;8.82;;;;;;;;;;2058894;28;20178;-52
2021/07/19 00:24:54;;;;;;;10.00;8.93;;;;;;;;;;2065648;28;20208;-51
2021/07/19 00:25:54;;;;;;;9.45;8.45;;;;;;;;;;2064311;28;20268;-54
2021/07/19 00:26:55;;;;;;;9.57;8.50;;;;;;;;;;2056606;28;20166;-56
2021/07/19 00:27:55;;;;;;;9.43;8.32;;;;;;;;;;2059369;28;20180;-53
2021/07/19 00:28:55;;;;;;;10.23;8.77;;;;;;;;;;2065118;28;20197;-55
2021/07/19 00:29:57;;;;;;;9.23;8.32;;;;;;;;;;2065719;28;20285;-51
2021/07/19 00:30:58;;;;;;;9.88;8.88;;;;;;;;;;2064110;28;20178;-53
2021/07/19 00:31:59;;;;;;;9.88;8.88;;;;;;;;;;2058979;28;20158;-50
2021/07/19 00:32:59;;;;;;;10.10;8.85;;;;;;;;;;2072584;28;21832;-54
2021/07/19 00:34:04;;;;;;;11.20;8.52;;;;;;;;;;2062728;28;20666;-53
2021/07/19 00:35:05;;;;;;;11.65;9.18;;;;;;;;;;2060035;28;20186;-52
2021/07/19 00:36:05;;;;;;;9.45;8.13;;;;;;;;;;2064644;28;20200;-53
2021/07/19 00:37:05;;;;;;;11.40;9.32;;;;;;;;;;2064550;28;20615;-51
2021/07/19 00:38:06;;;;;;;9.85;8.90;;;;;;;;;;2065525;28;20178;-55
2021/07/19 00:39:07;;;;;;;10.07;8.20;;;;;;;;;;2062275;28;20166;-54
2021/07/19 00:40:09;;;;;;;9.82;8.85;;;;;;;;;;2065225;28;20181;-51
2021/07/19 00:41:11;;;;;;;9.73;8.52;;;;;;;;;;2064915;28;20647;-53
2021/07/19 00:42:11;;;;;;;9.50;8.60;;;;;;;;;;2064257;28;20177;-49
2021/07/19 00:43:12;;;;;;;11.45;9.23;;;;;;;;;;2064190;28;20197;-51
2021/07/19 00:44:17;;;;;;;10.77;8.23;;;;;;;;;;2070325;28;20252;-52
2021/07/19 00:45:22;;;;;;;9.60;8.60;;;;;;;;;;2064876;28;20220;-52
2021/07/19 00:46:23;;;;;;;9.27;8.38;;;;;;;;;;2064000;28;20193;-54
2021/07/19 00:47:23;;;;;;;10.80;8.60;;;;;;;;;;2064609;28;20185;-49
2021/07/19 00:48:24;;;;;;;9.75;8.77;;;;;;;;;;2064109;28;20169;-54
2021/07/19 00:49:25;;;;;;;10.35;9.07;;;;;;;;;;2062198;28;20205;-51
2021/07/19 00:50:29;;;;;;;9.90;8.90;;;;;;;;;;2056565;28;20654;-52
2021/07/19 00:51:30;;;;;;;8.98;8.18;;;;;;;;;;2064760;28;20217;-53
2021/07/19 00:52:34;;;;;;;10.77;9.25;;;;;;;;;;2064384;28;20173;-52
2021/07/19 00:53:37;;;;;;;9.63;8.68;;;;;;;;;;2057719;28;20205;-50
2021/07/19 00:54:41;;;;;;;11.93;9.35;;;;;;;;;;2055283;28;20185;-49
2021/07/19 00:55:42;;;;;;;12.32;9.48;;;;;;;;;;2056010;28;20178;-50
2021/07/19 00:56:43;;;;;;;10.55;8.40;;;;;;;;;;2064426;28;20216;-51
2021/07/19 00:57:46;;;;;;;9.90;8.50;;;;;;;;;;2063961;28;20676;-50
2021/07/19 00:58:50;;;;;;;9.65;8.75;;;;;;;;;;2063760;28;20169;-49
2021/07/19 00:59:52;;;;;;;9.63;8.63;;;;;;;;;;2058522;28;20591;-50
2021/07/19 01:00:54;;;;;;;12.30;9.25;;;;;;;;;;2063834;28;20205;-54
2021/07/19 01:01:56;;;;;;;11.43;9.02;;;;;;;;;;2063659;28;20313;-49
2021/07/19 01:02:58;;;;;;;9.27;8.38;;;;;;;;;;2064584;28;20230;-50
2021/07/19 01:04:00;;;;;;;11.18;9.50;;;;;;;;;;2063781;28;20169;-52
2021/07/19 01:05:03;;;;;;;9.60;8.68;;;;;;;;;;2063846;28;20184;-49
2021/07/19 01:06:04;;;;;;;10.63;8.73;;;;;;;;;;2071899;28;20181;-50
2021/07/19 01:07:05;;;;;;;10.45;8.60;;;;;;;;;;2064662;28;20674;-51
2021/07/19 01:08:06;;;;;;;10.35;9.25;;;;;;;;;;2054382;28;20174;-51
2021/07/19 01:09:08;;;;;;;10.45;8.68;;;;;;;;;;2062783;28;20624;-50
2021/07/19 01:10:17;;;;;;;10.00;8.57;;;;;;;;;;2065038;28;20189;-50
2021/07/19 01:11:18;;;;;;;10.15;8.75;;;;;;;;;;2063294;28;20601;-54
2021/07/19 01:12:19;;;;;;;11.10;9.73;;;;;;;;;;2053492;28;20194;-52
2021/07/19 01:13:26;;;;;;;10.00;8.48;;;;;;;;;;2056473;28;20190;-53
2021/07/19 01:14:29;;;;;;;11.27;9.30;;;;;;;;;;2064395;28;20173;-50
2021/07/19 01:15:30;;;;;;;10.55;8.75;;;;;;;;;;2058109;28;20566;-48
2021/07/19 01:16:31;;;;;;;12.73;8.90;;;;;;;;;;2063169;28;20227;-48
2021/07/19 01:17:32;;;;;;;10.45;9.25;;;;;;;;;;2058702;28;20174;-50
2021/07/19 01:18:32;;;;;;;9.43;8.43;;;;;;;;;;2063264;28;20231;-50
2021/07/19 01:19:35;;;;;;;9.73;8.52;;;;;;;;;;2071742;28;20195;-52
2021/07/19 01:20:55;;;;;;;9.88;8.88;;;;;;;;;;2063907;28;20556;-50
2021/07/19 01:22:16;;;;;;;12.18;8.70;;;;;;;;;;2058229;28;20185;-48
2021/07/19 01:23:35;;;;;;;11.15;8.95;;;;;;;;;;2064216;28;20209;-50
2021/07/19 01:24:47;;;;;;;11.18;8.70;;;;;;;;;;2064998;28;20221;-54
2021/07/19 01:25:54;;;;;;;10.80;9.23;;;;;;;;;;2056703;28;20430;-49
2021/07/19 01:27:10;;;;;;;9.77;8.63;;;;;;;;;;2057232;28;20182;-50
2021/07/19 01:28:29;;;;;;;9.77;8.77;;;;;;;;;;2057474;28;20189;-52
2021/07/19 01:29:32;;;;;;;10.88;8.38;;;;;;;;;;2062930;28;20267;-55
2021/07/19 01:30:35;;;;;;;10.52;8.93;;;;;;;;;;2064282;28;20169;-55
2021/07/19 01:31:38;;;;;;;11.20;9.23;;;;;;;;;;2062942;28;20173;-51
2021/07/19 01:32:40;;;;;;;10.32;9.23;;;;;;;;;;2064003;28;20200;-50
2021/07/19 01:33:44;;;;;;;12.30;8.93;;;;;;;;;;2055819;28;20256;-50
2021/07/19 01:34:46;;;;;;;10.13;9.13;;;;;;;;;;2048625;28;20197;-52
2021/07/19 01:35:47;;;;;;;11.20;9.60;;;;;;;;;;2068738;28;20180;-49
2021/07/19 01:36:50;;;;;;;9.80;8.90;;;;;;;;;;2071794;28;20176;-51
2021/07/19 01:37:57;;;;;;;10.25;9.10;;;;;;;;;;2059740;28;20186;-50
2021/07/19 01:39:08;;;;;;;12.88;9.77;;;;;;;;;;2063884;28;20268;-54
2021/07/19 01:40:10;;;;;;;12.02;9.23;;;;;;;;;;2060865;28;20186;-50
2021/07/19 01:41:12;;;;;;;12.43;9.55;;;;;;;;;;2066126;28;20181;-50
2021/07/19 01:42:14;;;;;;;12.13;9.48;;;;;;;;;;2059974;28;20196;-52
2021/07/19 01:43:15;;;;;;;11.20;8.93;;;;;;;;;;2054921;28;20679;-52
2021/07/19 01:44:16;;;;;;;10.73;9.63;;;;;;;;;;2064022;28;20193;-49
2021/07/19 01:45:16;;;;;;;11.07;9.93;;;;;;;;;;2062865;28;20656;-49
2021/07/19 01:46:19;;;;;;;11.82;9.15;;;;;;;;;;2063751;28;20177;-51
2021/07/19 01:47:19;;;;;;;10.60;9.32;;;;;;;;;;2055966;28;20174;-49
2021/07/19 01:48:23;;;;;;;13.85;9.32;;;;;;;;;;2061675;28;20237;-49
2021/07/19 01:49:25;;;;;;;13.68;9.52;;;;;;;;;;2063200;28;20194;-51
2021/07/19 01:50:26;;;;;;;11.77;9.20;;;;;;;;;;2060728;28;20174;-48
2021/07/19 01:51:48;;;;;;;12.15;9.38;;;;;;;;;;2060262;28;20177;-53
2021/07/19 01:52:49;;;;;;;15.25;10.27;;;;;;;;;;2056043;28;20197;-55
2021/07/19 01:53:50;;;;;;;11.30;9.60;;;;;;;;;;2056359;28;20623;-50
2021/07/19 01:54:52;;;;;;;10.23;9.20;;;;;;;;;;2055854;28;20214;-50
2021/07/19 01:55:52;;;;;;;11.23;9.50;;;;;;;;;;2050948;28;20174;-49
2021/07/19 01:56:57;;;;;;;10.73;9.63;;;;;;;;;;2057737;28;20177;-51
2021/07/19 01:57:58;;;;;;;10.93;9.82;;;;;;;;;;2058273;28;20167;-52
2021/07/19 01:58:59;;;;;;;10.52;9.43;;;;;;;;;;2058640;28;20290;-51
2021/07/19 02:00:07;;;;;;;12.30;9.75;;;;;;;;;;2058649;28;20201;-51
2021/07/19 02:01:33;;;;;;;11.43;9.70;;;;;;;;;;2062833;28;20192;-51
2021/07/19 02:02:38;;;;;;;10.52;9.20;;;;;;;;;;2073178;28;20202;-51
2021/07/19 02:03:44;;;;;;;12.43;9.55;;;;;;;;;;2067020;28;20184;-49
2021/07/19 02:04:45;;;;;;;12.68;11.07;;;;;;;;;;2054146;28;20226;-54
2021/07/19 02:05:48;;;;;;;10.45;9.40;;;;;;;;;;2068217;28;20169;-52
2021/07/19 02:06:51;;;;;;;12.93;10.05;;;;;;;;;;2068913;28;20197;-55
2021/07/19 02:07:53;;;;;;;12.90;10.27;;;;;;;;;;2066624;28;20287;-52
2021/07/19 02:09:01;;;;;;;12.75;10.43;;;;;;;;;;2058864;28;20184;-55
2021/07/19 02:10:10;;;;;;;11.40;10.07;;;;;;;;;;2067082;28;20180;-51
2021/07/19 02:11:33;;;;;;;12.95;10.25;;;;;;;;;;2054498;28;20211;-55
2021/07/19 02:12:36;;;;;;;12.40;10.45;;;;;;;;;;2067219;28;20542;-51
2021/07/19 02:13:38;;;;;;;14.30;11.73;;;;;;;;;;2064261;28;21037;-52
2021/07/19 02:14:40;;;;;;;13.02;10.48;;;;;;;;;;2065004;28;20267;-49
2021/07/19 02:15:46;;;;;;;12.75;10.15;;;;;;;;;;2064333;28;20173;-52
2021/07/19 02:16:50;;;;;;;11.88;10.18;;;;;;;;;;2064804;28;20547;-50
2021/07/19 02:17:58;;;;;;;11.07;9.30;;;;;;;;;;2063587;28;20177;-49
2021/07/19 02:18:59;;;;;;;12.05;9.95;;;;;;;;;;2057118;28;20177;-50
2021/07/19 02:20:06;;;;;;;13.25;10.38;;;;;;;;;;2056213;28;20182;-50
2021/07/19 02:21:07;;;;;;;13.40;10.80;;;;;;;;;;2063898;28;20161;-51
2021/07/19 02:22:17;;;;;;;12.15;10.20;;;;;;;;;;2070464;28;20177;-53
2021/07/19 02:23:31;;;;;;;15.32;11.13;;;;;;;;;;2064236;28;20200;-52
2021/07/19 02:24:54;;;;;;;11.57;10.38;;;;;;;;;;2052837;28;20275;-49
2021/07/19 02:25:58;;;;;;;12.55;10.20;;;;;;;;;;2064040;28;20184;-53
2021/07/19 02:27:00;;;;;;;16.77;10.55;;;;;;;;;;2063809;28;20177;-52
2021/07/19 02:28:02;;;;;;;12.32;10.05;;;;;;;;;;2059119;28;20332;-53
2021/07/19 02:29:03;;;;;;;13.25;10.43;;;;;;;;;;2055245;28;20170;-49
2021/07/19 02:30:05;;;;;;;12.43;10.40;;;;;;;;;;2063074;28;20214;-51
2021/07/19 02:31:07;;;;;;;12.57;10.32;;;;;;;;;;2062786;28;20681;-50
2021/07/19 02:32:09;;;;;;;12.57;10.20;;;;;;;;;;2062462;28;20178;-50
2021/07/19 02:33:12;;;;;;;12.20;10.65;;;;;;;;;;2063322;28;20628;-50
2021/07/19 02:34:17;;;;;;;13.77;11.18;;;;;;;;;;2063294;28;20189;-49
2021/07/19 02:35:17;;;;;;;12.48;10.40;;;;;;;;;;2056108;28;20174;-51
2021/07/19 02:36:20;;;;;;;13.77;10.70;;;;;;;;;;2063223;28;20178;-52
2021/07/19 02:37:22;;;;;;;12.25;10.45;;;;;;;;;;2063536;28;20174;-53
2021/07/19 02:38:55;;;;;;;11.80;9.93;;;;;;;;;;2046759;29;20714;-50
2021/07/19 02:39:58;;;;;;;12.10;10.73;;;;;;;;;;2059343;28;20186;-50
2021/07/19 02:40:59;;;;;;;13.25;10.88;;;;;;;;;;2057823;28;20421;-52
2021/07/19 02:42:00;;;;;;;12.57;10.88;;;;;;;;;;2057663;28;20543;-51
2021/07/19 02:43:05;;;;;;;14.18;10.05;;;;;;;;;;2064110;28;20201;-50
2021/07/19 02:44:06;;;;;;;12.57;10.68;;;;;;;;;;2055584;28;20249;-49
2021/07/19 02:45:25;;;;;;;12.82;10.10;;;;;;;;;;2061308;28;20181;-53
2021/07/19 02:46:29;;;;;;;12.60;10.65;;;;;;;;;;2063318;28;20169;-52
2021/07/19 02:47:31;;;;;;;13.63;10.60;;;;;;;;;;2056259;28;20617;-54
2021/07/19 02:48:36;;;;;;;15.98;11.40;;;;;;;;;;2056011;28;20182;-49
2021/07/19 02:49:37;;;;;;;14.23;10.70;;;;;;;;;;2064660;28;20666;-50
2021/07/19 02:50:37;;;;;;;14.27;10.65;;;;;;;;;;2064301;28;20185;-52
2021/07/19 02:51:38;;;;;;;13.82;11.35;;;;;;;;;;2064022;28;20257;-49
2021/07/19 02:52:49;;;;;;;17.35;10.80;;;;;;;;;;2063796;28;20154;-52
2021/07/19 02:53:53;;;;;;;12.90;10.77;;;;;;;;;;2063270;28;20185;-51
2021/07/19 02:54:54;;;;;;;14.70;11.18;;;;;;;;;;2064453;28;20166;-53
2021/07/19 02:55:59;;;;;;;13.13;10.75;;;;;;;;;;2063539;28;20666;-48
2021/07/19 02:57:03;;;;;;;13.40;10.48;;;;;;;;;;2064584;28;20232;-51
2021/07/19 02:58:13;;;;;;;13.75;11.38;;;;;;;;;;2061341;28;22377;-50
2021/07/19 02:59:14;;;;;;;14.15;10.88;;;;;;;;;;2061733;28;20264;-52
2021/07/19 03:00:17;;;;;;;14.15;11.18;;;;;;;;;;2062920;28;20209;-51
2021/07/19 03:01:25;;;;;;;16.23;10.98;;;;;;;;;;2064705;28;20173;-53
2021/07/19 03:02:29;;;;;;;16.15;11.50;;;;;;;;;;2056319;28;20182;-51
2021/07/19 03:03:32;;;;;;;14.70;11.10;;;;;;;;;;2061286;28;20202;-49
2021/07/19 03:04:34;;;;;;;13.07;10.93;;;;;;;;;;2058450;28;20667;-50
2021/07/19 03:05:37;;;;;;;13.05;10.73;;;;;;;;;;2047930;28;20179;-52
2021/07/19 03:06:40;;;;;;;11.85;10.52;;;;;;;;;;2065264;28;20244;-52
2021/07/19 03:07:49;;;;;;;17.95;11.35;;;;;;;;;;2064863;28;20185;-52
2021/07/19 03:08:52;;;;;;;11.68;10.57;;;;;;;;;;2057533;28;20193;-52
2021/07/19 03:10:11;;;;;;;12.38;10.20;;;;;;;;;;2065791;28;20217;-52
2021/07/19 03:11:20;;;;;;;15.73;11.00;;;;;;;;;;2065158;28;20270;-54
2021/07/19 03:12:22;;;;;;;11.82;10.02;;;;;;;;;;2055140;28;20185;-51
2021/07/19 03:13:26;;;;;;;13.60;10.68;;;;;;;;;;2047899;29;20860;-52
2021/07/19 03:14:29;;;;;;;11.48;10.25;;;;;;;;;;2056613;28;20344;-53
2021/07/19 03:15:37;;;;;;;14.15;10.02;;;;;;;;;;2068611;28;20177;-53
2021/07/19 03:16:38;;;;;;;11.98;9.73;;;;;;;;;;2065115;28;20260;-54
2021/07/19 03:17:42;;;;;;;11.90;10.15;;;;;;;;;;2064689;28;20672;-55
2021/07/19 03:18:46;;;;;;;13.50;10.77;;;;;;;;;;2050337;28;20186;-50
2021/07/19 03:19:47;;;;;;;16.00;11.35;;;;;;;;;;2056615;28;20210;-54
2021/07/19 03:20:49;;;;;;;13.65;10.85;;;;;;;;;;2064293;28;20178;-53
2021/07/19 03:21:51;;;;;;;12.48;10.15;;;;;;;;;;2070227;28;20173;-53
2021/07/19 03:23:12;;;;;;;10.93;9.82;;;;;;;;;;2057324;28;20214;-50
2021/07/19 03:24:16;;;;;;;11.88;10.05;;;;;;;;;;2061075;28;20264;-49
2021/07/19 03:25:17;;;;;;;13.15;10.20;;;;;;;;;;2060873;28;20268;-49
2021/07/19 03:26:22;;;;;;;10.90;9.80;;;;;;;;;;2062337;28;20541;-51
2021/07/19 03:27:25;;;;;;;14.82;9.90;;;;;;;;;;2065272;28;20323;-51
2021/07/19 03:28:29;;;;;;;12.80;10.00;;;;;;;;;;2065432;28;20201;-54
2021/07/19 03:29:33;;;;;;;14.82;10.05;;;;;;;;;;2066030;28;20201;-50
2021/07/19 03:30:52;;;;;;;13.10;9.88;;;;;;;;;;2065027;28;20797;-50
2021/07/19 03:31:53;;;;;;;15.52;10.27;;;;;;;;;;2064964;28;20251;-50
2021/07/19 03:32:57;;;;;;;11.52;10.32;;;;;;;;;;2065348;28;20170;-51
2021/07/19 03:33:59;;;;;;;14.00;11.45;;;;;;;;;;2062788;28;20178;-50
2021/07/19 03:35:02;;;;;;;14.13;10.20;;;;;;;;;;2063160;28;20174;-49
2021/07/19 03:36:09;;;;;;;12.90;10.30;;;;;;;;;;2069922;28;20182;-50
2021/07/19 03:37:10;;;;;;;11.10;9.40;;;;;;;;;;2066077;28;20237;-49
2021/07/19 03:38:14;;;;;;;15.32;10.05;;;;;;;;;;2064277;28;20201;-52
2021/07/19 03:39:36;;;;;;;13.85;10.43;;;;;;;;;;2063669;28;20192;-52
2021/07/19 03:40:37;;;;;;;12.43;10.40;;;;;;;;;;2064810;28;20193;-52
2021/07/19 03:41:37;;;;;;;11.48;9.95;;;;;;;;;;2064292;28;20573;-52
2021/07/19 03:42:41;;;;;;;12.45;10.02;;;;;;;;;;2051087;28;20198;-53
2021/07/19 03:43:44;;;;;;;11.20;10.10;;;;;;;;;;2064314;28;20186;-52
2021/07/19 03:44:44;;;;;;;10.68;9.23;;;;;;;;;;2057511;28;20587;-50
2021/07/19 03:45:49;;;;;;;15.20;9.43;;;;;;;;;;2052835;28;20277;-52
2021/07/19 03:46:54;;;;;;;10.40;9.25;;;;;;;;;;2057042;28;20576;-52
2021/07/19 03:47:59;;;;;;;12.43;8.82;;;;;;;;;;2060736;28;20265;-53
2021/07/19 03:49:05;;;;;;;11.93;9.50;;;;;;;;;;2056794;28;20174;-49
2021/07/19 03:50:08;;;;;;;14.07;9.65;;;;;;;;;;2064848;28;20177;-51
2021/07/19 03:51:14;;;;;;;13.73;9.70;;;;;;;;;;2064373;28;20166;-49
2021/07/19 03:52:18;;;;;;;12.70;9.77;;;;;;;;;;2060394;28;20178;-50
2021/07/19 03:53:21;;;;;;;11.77;9.63;;;;;;;;;;2057136;28;20695;-49
2021/07/19 03:54:33;;;;;;;11.55;9.63;;;;;;;;;;2064297;28;20257;-51
2021/07/19 03:55:33;;;;;;;13.98;10.50;;;;;;;;;;2065712;28;20764;-49
2021/07/19 03:56:35;;;;;;;12.52;9.60;;;;;;;;;;2064969;28;20571;-51
2021/07/19 03:57:38;;;;;;;13.55;9.73;;;;;;;;;;2061151;28;20491;-49
2021/07/19 03:58:39;;;;;;;14.10;9.40;;;;;;;;;;2064000;28;20177;-50
2021/07/19 03:59:41;;;;;;;12.30;8.88;;;;;;;;;;2048950;29;20557;-49
2021/07/19 04:00:48;;;;;;;13.32;9.63;;;;;;;;;;2036985;28;20192;-49
2021/07/19 04:01:51;;;;;;;13.60;9.80;;;;;;;;;;2055896;28;20217;-52
2021/07/19 04:02:54;;;;;;;12.55;9.55;;;;;;;;;;2060146;28;20647;-51
2021/07/19 04:03:56;;;;;;;12.32;9.95;;;;;;;;;;2065655;28;20174;-53
2021/07/19 04:05:08;;;;;;;11.85;8.63;;;;;;;;;;2065169;28;20212;-50
2021/07/19 04:06:16;;;;;;;11.88;10.00;;;;;;;;;;2065066;28;20687;-52
2021/07/19 04:07:24;;;;;;;12.85;9.75;;;;;;;;;;2064508;28;20272;-53
2021/07/19 04:08:32;;;;;;;12.60;9.20;;;;;;;;;;2056663;28;20182;-54
2021/07/19 04:09:33;;;;;;;11.20;9.45;;;;;;;;;;2063113;28;20197;-51
2021/07/19 04:10:35;;;;;;;16.05;9.85;;;;;;;;;;2063690;28;20220;-52
2021/07/19 04:11:37;;;;;;;11.27;8.05;;;;;;;;;;2064562;28;20204;-51
2021/07/19 04:12:43;;;;;;;13.40;9.00;;;;;;;;;;2061982;28;20697;-50
2021/07/19 04:13:45;;;;;;;11.63;10.23;;;;;;;;;;2067307;28;20646;-49
2021/07/19 04:14:46;;;;;;;14.73;8.85;;;;;;;;;;2067091;28;20236;-50
2021/07/19 04:15:49;;;;;;;14.75;8.82;;;;;;;;;;2069680;28;20165;-49
2021/07/19 04:16:52;;;;;;;11.57;9.30;;;;;;;;;;2065769;28;20306;-50
2021/07/19 04:17:52;;;;;;;12.30;9.07;;;;;;;;;;2064724;28;20419;-49
2021/07/19 04:19:00;;;;;;;14.00;8.57;;;;;;;;;;2063109;28;20182;-50
2021/07/19 04:20:03;;;;;;;13.43;9.65;;;;;;;;;;2059237;28;20179;-54
2021/07/19 04:21:04;;;;;;;13.15;9.60;;;;;;;;;;2047832;28;20167;-50
2021/07/19 04:22:07;;;;;;;15.20;9.85;;;;;;;;;;2055928;28;20213;-55
2021/07/19 04:23:29;;;;;;;10.20;8.82;;;;;;;;;;2064105;28;20212;-52
2021/07/19 04:24:59;;;;;;;12.40;8.27;;;;;;;;;;2055314;28;20174;-53
2021/07/19 04:26:00;;;;;;;16.20;9.18;;;;;;;;;;2064281;28;20162;-54
2021/07/19 04:27:01;;;;;;;11.35;8.93;;;;;;;;;;2062176;28;20184;-51
2021/07/19 04:28:01;;;;;;;13.60;9.27;;;;;;;;;;2051162;28;20265;-50
2021/07/19 04:29:02;;;;;;;14.00;9.40;;;;;;;;;;2062941;28;20196;-51
2021/07/19 04:30:08;;;;;;;13.60;9.27;;;;;;;;;;2059685;28;20181;-53
2021/07/19 04:31:23;;;;;;;12.45;9.25;;;;;;;;;;2059335;28;20200;-53
2021/07/19 04:32:30;;;;;;;9.75;8.70;;;;;;;;;;2063148;28;20181;-53
2021/07/19 04:33:30;;;;;;;12.82;9.10;;;;;;;;;;2074018;22;20634;-58
2021/07/19 04:34:32;;;;;;;13.63;9.13;;;;;;;;;;2070593;28;20256;-57
2021/07/19 04:35:41;;;;;;;10.43;8.93;;;;;;;;;;2070930;28;20185;-59
2021/07/19 04:36:41;;;;;;;14.25;9.27;;;;;;;;;;2070457;28;20255;-57
2021/07/19 04:37:45;;;;;;;12.55;8.88;;;;;;;;;;2073683;28;20268;-60
2021/07/19 04:38:46;;;;;;;11.80;8.70;;;;;;;;;;2064582;28;20177;-57
2021/07/19 04:39:47;;;;;;;11.95;9.20;;;;;;;;;;2072622;28;20169;-60
2021/07/19 04:40:54;;;;;;;12.77;8.88;;;;;;;;;;2064729;28;20174;-60
2021/07/19 04:41:55;;;;;;;11.55;9.55;;;;;;;;;;2071110;28;20181;-59
2021/07/19 04:42:56;;;;;;;12.88;8.90;;;;;;;;;;2064333;28;20183;-57
2021/07/19 04:43:56;;;;;;;11.35;8.63;;;;;;;;;;2071786;28;20303;-54
2021/07/19 04:44:57;;;;;;;11.63;8.32;;;;;;;;;;2066420;28;20530;-58
2021/07/19 04:45:58;;;;;;;11.60;8.60;;;;;;;;;;2062779;28;20186;-59
2021/07/19 04:46:58;;;;;;;11.60;8.73;;;;;;;;;;2064556;28;20172;-59
2021/07/19 04:47:58;;;;;;;11.40;8.75;;;;;;;;;;2056816;28;20186;-59
2021/07/19 04:48:59;;;;;;;11.15;8.10;;;;;;;;;;2063564;28;20170;-60
2021/07/19 04:49:59;;;;;;;12.15;7.88;;;;;;;;;;2064902;28;20193;-60
2021/07/19 04:50:59;;;;;;;11.10;7.85;;;;;;;;;;2066825;28;20261;-60
2021/07/19 04:51:59;;;;;;;12.65;8.02;;;;;;;;;;2071149;28;20161;-57
2021/07/19 04:53:00;;;;;;;9.85;8.10;;;;;;;;;;2067130;28;20546;-58
2021/07/19 04:54:01;;;;;;;10.63;8.27;;;;;;;;;;2070670;28;20674;-55
2021/07/19 04:55:02;;;;;;;11.75;9.32;;;;;;;;;;2067181;28;20278;-59
2021/07/19 04:56:03;;;;;;;9.35;8.13;;;;;;;;;;2071135;28;20173;-56
2021/07/19 04:57:04;;;;;;;9.68;8.10;;;;;;;;;;2066934;28;20228;-60
2021/07/19 04:58:06;;;;;;;14.55;8.20;;;;;;;;;;2073094;28;20192;-54
2021/07/19 04:59:07;;;;;;;11.32;7.90;;;;;;;;;;2066192;28;20225;-59
2021/07/19 05:00:07;;;;;;;12.25;8.27;;;;;;;;;;2068560;28;20169;-61
2021/07/19 05:01:08;;;;;;;12.60;7.85;;;;;;;;;;2068137;28;20188;-59
2021/07/19 05:02:10;;;;;;;11.15;7.47;;;;;;;;;;2068209;28;20260;-58
2021/07/19 05:03:10;;;;;;;10.68;7.93;;;;;;;;;;2062837;28;20172;-58
2021/07/19 05:04:13;;;;;;;9.52;7.55;;;;;;;;;;2069006;28;20182;-59
2021/07/19 05:05:17;;;;;;;10.63;7.60;;;;;;;;;;2069174;28;20216;-57
2021/07/19 05:06:18;;;;;;;9.90;7.70;;;;;;;;;;2065731;28;20178;-58
2021/07/19 05:07:21;;;;;;;12.50;8.32;;;;;;;;;;2066106;28;20180;-56
2021/07/19 05:08:23;;;;;;;9.35;7.70;;;;;;;;;;2064653;28;20178;-58
2021/07/19 05:09:24;;;;;;;12.23;7.65;;;;;;;;;;2068338;28;20219;-61
2021/07/19 05:10:26;;;;;;;10.88;7.60;;;;;;;;;;2063412;28;20205;-52
2021/07/19 05:11:27;;;;;;;12.90;8.68;;;;;;;;;;2067628;28;20716;-58
2021/07/19 05:12:30;;;;;;;11.18;8.15;;;;;;;;;;2067631;28;20178;-60
2021/07/19 05:13:31;;;;;;;12.02;8.68;;;;;;;;;;2071553;28;20184;-60
2021/07/19 05:14:32;;;;;;;10.98;8.10;;;;;;;;;;2065906;28;20182;-57
2021/07/19 05:15:33;;;;;;;13.90;7.82;;;;;;;;;;2068883;28;20261;-57
2021/07/19 05:16:34;;;;;;;11.48;7.60;;;;;;;;;;2070457;28;20264;-57
2021/07/19 05:17:34;;;;;;;12.95;8.85;;;;;;;;;;2061775;28;20214;-57
2021/07/19 05:18:35;;;;;;;14.02;7.97;;;;;;;;;;2070451;28;20199;-51
2021/07/19 05:19:37;;;;;;;11.93;7.63;;;;;;;;;;2071945;28;20561;-59
2021/07/19 05:20:39;;;;;;;15.43;8.40;;;;;;;;;;2063979;28;20169;-57
2021/07/19 05:21:41;;;;;;;10.48;7.45;;;;;;;;;;2058352;28;20286;-59
2021/07/19 05:22:49;;;;;;;12.50;7.93;;;;;;;;;;2064695;28;20190;-57
2021/07/19 05:23:49;;;;;;;9.82;6.80;;;;;;;;;;2055897;28;20281;-54
2021/07/19 05:24:54;;;;;;;10.90;6.95;;;;;;;;;;2056432;28;20166;-56
2021/07/19 05:25:55;;;;;;;11.50;7.47;;;;;;;;;;2065803;28;20236;-56
2021/07/19 05:26:55;;;;;;;9.45;7.47;;;;;;;;;;2068336;28;20262;-58
2021/07/19 05:27:58;;;;;;;10.80;7.05;;;;;;;;;;2070964;28;20691;-61
2021/07/19 05:29:00;;;;;;;12.30;7.25;;;;;;;;;;2062354;28;20173;-54
2021/07/19 05:30:00;;;;;;;11.15;7.15;;;;;;;;;;2060984;28;20183;-58
2021/07/19 05:31:00;;;;;;;12.82;7.32;;;;;;;;;;2059541;28;20198;-57
2021/07/19 05:32:04;;;;;;;10.25;7.05;;;;;;;;;;2064337;28;20173;-59
2021/07/19 05:33:04;;;;;;;6.80;6.05;;;;;;;;;;2064395;28;20235;-56
2021/07/19 05:34:04;;;;;;;13.25;8.02;;;;;;;;;;2069633;28;20649;-57
2021/07/19 05:35:05;;;;;;;12.18;7.63;;;;;;;;;;2070023;28;20158;-57
2021/07/19 05:36:05;;;;;;;13.48;6.97;;;;;;;;;;2067656;28;20188;-60
2021/07/19 05:37:05;;;;;;;15.57;6.95;;;;;;;;;;2073045;28;20162;-58
2021/07/19 05:38:06;;;;;;;9.65;6.78;;;;;;;;;;2073223;28;20238;-59
2021/07/19 05:39:08;;;;;;;8.40;6.30;;;;;;;;;;2068213;28;20255;-59
2021/07/19 05:40:09;;;;;;;11.25;7.35;;;;;;;;;;2071665;28;20645;-58
2021/07/19 05:41:10;;;;;;;11.68;7.50;;;;;;;;;;2068982;28;20209;-58
2021/07/19 05:42:10;;;;;;;9.27;6.13;;;;;;;;;;2063546;28;20231;-55
2021/07/19 05:43:10;;;;;;;10.95;6.75;;;;;;;;;;2068947;28;20678;-51
2021/07/19 05:44:11;;;;;;;8.80;7.07;;;;;;;;;;2067740;28;20200;-50
2021/07/19 05:45:12;;;;;;;11.02;7.38;;;;;;;;;;2068590;28;20175;-49
2021/07/19 05:46:12;;;;;;;11.63;8.10;;;;;;;;;;2065370;28;20188;-50
2021/07/19 05:47:12;;;;;;;14.52;7.00;;;;;;;;;;2069101;28;20189;-52
2021/07/19 05:48:13;;;;;;;11.45;7.25;;;;;;;;;;2062415;28;20526;-49
2021/07/19 05:49:13;;;;;;;14.73;7.13;;;;;;;;;;2067302;28;20306;-50
2021/07/19 05:50:13;;;;;;;9.60;6.55;;;;;;;;;;2067512;28;20260;-53
2021/07/19 05:51:13;;;;;;;17.10;7.70;;;;;;;;;;2071193;28;20667;-49
2021/07/19 05:52:14;;;;;;;9.45;6.93;;;;;;;;;;2065175;28;20556;-51
2021/07/19 05:53:14;;;;;;;8.93;6.72;;;;;;;;;;2068157;28;20181;-47
2021/07/19 05:54:14;;;;;;;13.93;7.65;;;;;;;;;;2069437;28;20188;-50
2021/07/19 05:55:15;;;;;;;9.32;6.50;;;;;;;;;;2066271;28;20764;-48
2021/07/19 05:56:15;;;;;;;10.48;6.13;;;;;;;;;;2065177;28;20181;-50
2021/07/19 05:57:16;;;;;;;9.25;6.10;;;;;;;;;;2067858;28;20275;-48
2021/07/19 05:58:17;;;;;;;9.32;6.78;;;;;;;;;;2068991;28;20307;-49
2021/07/19 05:59:17;;;;;;;7.85;6.50;;;;;;;;;;2064945;28;20180;-47
2021/07/19 06:00:18;;;;;;;9.50;6.85;;;;;;;;;;2061778;28;20233;-48
2021/07/19 06:01:19;;;;;;;7.88;7.13;;;;;;;;;;2061267;28;20166;-57
2021/07/19 06:02:19;;;;;;;12.10;7.32;;;;;;;;;;2065597;28;20186;-52
2021/07/19 06:03:20;;;;;;;11.25;6.90;;;;;;;;;;2060090;28;20305;-48
2021/07/19 06:04:21;;;;;;;8.20;6.20;;;;;;;;;;2065504;28;20169;-50
2021/07/19 06:05:21;;;;;;;10.30;6.47;;;;;;;;;;2061789;28;20664;-53
2021/07/19 06:06:21;;;;;;;10.88;6.88;;;;;;;;;;2062532;28;20271;-53
2021/07/19 06:07:22;;;;;;;10.27;6.63;;;;;;;;;;2065642;28;20181;-55
2021/07/19 06:08:22;;;;;;;9.20;6.38;;;;;;;;;;2064425;28;20177;-57
2021/07/19 06:09:22;;;;;;;7.88;6.10;;;;;;;;;;2071159;28;20266;-53
2021/07/19 06:10:23;;;;;;;9.10;6.72;;;;;;;;;;2070389;28;20184;-52
2021/07/19 06:11:23;;;;;;;7.78;6.22;;;;;;;;;;2069548;28;20181;-50
2021/07/19 06:12:23;;;;;;;8.75;6.20;;;;;;;;;;2068656;28;20180;-55
2021/07/19 06:13:23;;;;;;;6.80;5.55;;;;;;;;;;2070846;28;20735;-49